createdAt,value
2017-07-03T00:02:22.258Z,3.90
2017-07-03T00:04:50.322Z,3.30
2017-07-03T00:07:19.167Z,4.33
2017-07-03T00:09:47.244Z,4.27
2017-07-03T00:12:15.332Z,4.10
2017-07-03T00:14:43.396Z,3.90
2017-07-03T00:17:11.484Z,3.60
2017-07-03T00:19:40.318Z,4.17
2017-07-03T00:22:08.396Z,3.77
2017-07-03T00:24:36.454Z,3.80
2017-07-03T00:27:04.528Z,3.60
2017-07-03T00:29:32.606Z,3.77
2017-07-03T00:32:00.664Z,3.27
2017-07-03T00:34:28.739Z,4.60
2017-07-03T00:36:56.810Z,3.70
2017-07-03T00:39:24.892Z,4.00
2017-07-03T00:41:52.950Z,3.43
2017-07-03T00:44:21.015Z,3.13
2017-07-03T00:46:49.142Z,3.90
2017-07-03T00:49:17.203Z,4.37
2017-07-03T00:51:45.290Z,3.53
2017-07-03T00:54:13.372Z,3.17
2017-07-03T00:56:42.200Z,3.90
2017-07-03T00:59:10.263Z,3.83
2017-07-03T01:01:38.342Z,3.40
2017-07-03T01:04:06.390Z,3.80
2017-07-03T01:06:34.467Z,3.90
2017-07-03T01:09:03.303Z,3.70
2017-07-03T01:11:31.363Z,3.57
2017-07-03T01:13:59.444Z,4.17
2017-07-03T01:16:27.507Z,3.70
2017-07-03T01:18:55.567Z,3.80
2017-07-03T01:21:23.657Z,3.80
2017-07-03T01:23:51.722Z,3.20
2017-07-03T01:26:19.782Z,3.37
2017-07-03T01:28:47.853Z,4.00
2017-07-03T01:31:15.914Z,3.73
2017-07-03T01:33:44.011Z,4.20
2017-07-03T01:36:12.074Z,5.00
2017-07-03T01:38:40.155Z,3.27
2017-07-03T01:41:08.206Z,4.13
2017-07-03T01:43:36.271Z,3.10
2017-07-03T01:46:04.385Z,4.10
2017-07-03T01:48:32.423Z,3.53
2017-07-03T01:51:00.495Z,4.10
2017-07-03T01:53:28.559Z,3.70
2017-07-03T01:55:56.626Z,3.70
2017-07-03T01:58:24.704Z,4.20
2017-07-03T02:00:52.746Z,4.00
2017-07-03T02:03:20.827Z,3.60
2017-07-03T02:05:48.890Z,3.60
2017-07-03T02:08:16.991Z,3.70
2017-07-03T02:10:45.055Z,3.73
2017-07-03T02:13:13.133Z,3.50
2017-07-03T02:15:41.189Z,3.60
2017-07-03T02:18:09.261Z,4.20
2017-07-03T02:20:37.319Z,3.30
2017-07-03T02:23:05.379Z,4.40
2017-07-03T02:25:33.451Z,3.30
2017-07-03T02:28:01.519Z,4.07
2017-07-03T02:30:30.359Z,3.83
2017-07-03T02:32:58.428Z,3.70
2017-07-03T02:35:26.478Z,4.70
2017-07-03T02:37:54.531Z,3.40
2017-07-03T02:40:22.598Z,3.90
2017-07-03T02:42:50.672Z,3.50
2017-07-03T02:45:18.732Z,3.70
2017-07-03T02:47:46.822Z,3.40
2017-07-03T02:50:14.886Z,4.40
2017-07-03T02:52:42.971Z,3.60
2017-07-03T02:55:11.043Z,3.83
2017-07-03T02:57:39.115Z,4.73
2017-07-03T03:00:07.173Z,3.73
2017-07-03T03:02:35.244Z,3.70
2017-07-03T03:05:04.102Z,4.40
2017-07-03T03:07:32.171Z,4.17
2017-07-03T03:10:00.239Z,4.43
2017-07-03T03:12:28.309Z,4.50
2017-07-03T03:14:56.371Z,4.23
2017-07-03T03:17:24.447Z,4.03
2017-07-03T03:19:52.499Z,4.13
2017-07-03T03:22:20.572Z,3.80
2017-07-03T03:24:48.646Z,3.77
2017-07-03T03:27:16.692Z,3.90
2017-07-03T03:29:44.743Z,4.20
2017-07-03T03:32:12.822Z,4.27
2017-07-03T03:34:40.882Z,4.00
2017-07-03T03:37:08.975Z,4.20
2017-07-03T03:39:37.023Z,4.43
2017-07-03T03:42:05.078Z,3.80
2017-07-03T03:44:33.916Z,4.63
2017-07-03T03:47:01.987Z,4.30
2017-07-03T03:49:30.047Z,3.70
2017-07-03T03:51:58.128Z,4.50
2017-07-03T03:54:26.210Z,4.17
2017-07-03T03:56:54.283Z,4.20
2017-07-03T03:59:22.339Z,4.17
2017-07-03T04:01:50.414Z,4.00
2017-07-03T04:04:18.472Z,3.90
2017-07-03T04:06:46.531Z,3.80
2017-07-03T04:09:14.607Z,4.53
2017-07-03T04:11:42.684Z,4.13
2017-07-03T04:14:10.774Z,4.23
2017-07-03T04:16:38.832Z,4.43
2017-07-03T04:19:07.587Z,4.03
2017-07-03T04:21:35.668Z,4.53
2017-07-03T04:24:03.711Z,4.30
2017-07-03T04:26:32.620Z,4.43
2017-07-03T04:29:00.686Z,5.03
2017-07-03T04:31:29.515Z,4.83
2017-07-03T04:33:57.585Z,5.00
2017-07-03T04:36:25.647Z,5.37
2017-07-03T04:38:53.727Z,6.10
2017-07-03T04:41:21.811Z,5.47
2017-07-03T04:43:49.878Z,5.77
2017-07-03T04:46:17.951Z,5.10
2017-07-03T04:48:46.012Z,5.57
2017-07-03T04:51:14.079Z,5.57
2017-07-03T04:53:42.164Z,6.57
2017-07-03T04:56:10.279Z,6.33
2017-07-03T04:58:38.312Z,5.77
2017-07-03T05:01:06.404Z,5.97
2017-07-03T05:03:34.464Z,6.57
2017-07-03T05:06:02.547Z,6.13
2017-07-03T05:08:30.706Z,5.87
2017-07-03T05:10:59.520Z,6.10
2017-07-03T05:13:27.586Z,6.10
2017-07-03T05:15:56.383Z,6.43
2017-07-03T05:18:24.455Z,6.03
2017-07-03T05:20:52.510Z,8.17
2017-07-03T05:23:20.572Z,7.63
2017-07-03T05:25:48.638Z,5.90
2017-07-03T05:28:16.703Z,7.20
2017-07-03T05:30:44.752Z,5.27
2017-07-03T05:33:13.602Z,5.77
2017-07-03T05:35:41.682Z,6.33
2017-07-03T05:38:09.754Z,5.77
2017-07-03T05:40:37.817Z,5.43
2017-07-03T05:43:11.720Z,4.80
2017-07-03T05:45:39.790Z,5.30
2017-07-03T05:48:07.866Z,6.40
2017-07-03T05:50:35.931Z,5.70
2017-07-03T05:53:04.000Z,5.53
2017-07-03T05:55:32.059Z,5.20
2017-07-03T05:58:00.149Z,4.57
2017-07-03T06:00:28.202Z,4.57
2017-07-03T06:02:56.265Z,4.47
2017-07-03T06:05:24.342Z,5.03
2017-07-03T06:07:53.192Z,4.67
2017-07-03T06:10:21.250Z,4.30
2017-07-03T06:12:49.307Z,4.30
2017-07-03T06:15:17.380Z,4.30
2017-07-03T06:17:45.464Z,4.60
2017-07-03T06:20:13.516Z,4.33
2017-07-03T06:22:41.802Z,5.20
2017-07-03T06:25:09.857Z,3.97
2017-07-03T06:27:37.927Z,4.80
2017-07-03T06:30:05.978Z,5.13
2017-07-03T06:32:34.075Z,4.50
2017-07-03T06:35:02.162Z,5.17
2017-07-03T06:37:30.215Z,4.77
2017-07-03T06:39:58.283Z,4.57
2017-07-03T06:42:26.351Z,4.73
2017-07-03T06:44:54.448Z,4.70
2017-07-03T06:47:22.515Z,5.40
2017-07-03T06:49:50.572Z,5.10
2017-07-03T06:52:18.640Z,5.93
2017-07-03T06:54:46.707Z,4.80
2017-07-03T06:57:14.780Z,5.00
2017-07-03T06:59:42.865Z,6.13
2017-07-03T07:02:10.950Z,4.50
2017-07-03T07:04:39.003Z,4.80
2017-07-03T07:07:07.078Z,4.47
2017-07-03T07:09:35.151Z,3.43
2017-07-03T07:12:03.206Z,4.27
2017-07-03T07:14:31.275Z,4.03
2017-07-03T07:16:59.383Z,4.00
2017-07-03T07:19:27.447Z,3.83
2017-07-03T07:21:55.518Z,3.60
2017-07-03T07:24:23.595Z,3.53
2017-07-03T07:26:52.019Z,3.80
2017-07-03T07:29:20.819Z,3.80
2017-07-03T07:31:48.889Z,3.90
2017-07-03T07:34:16.939Z,3.93
2017-07-03T07:36:44.995Z,3.20
2017-07-03T07:39:13.842Z,3.97
2017-07-03T07:41:41.899Z,3.70
2017-07-03T07:44:10.002Z,3.93
2017-07-03T07:46:38.088Z,3.37
2017-07-03T07:49:06.178Z,3.40
2017-07-03T07:51:34.987Z,2.77
2017-07-03T07:54:03.066Z,3.33
2017-07-03T07:56:31.139Z,3.10
2017-07-03T07:58:59.202Z,2.87
2017-07-03T08:01:27.256Z,2.50
2017-07-03T08:03:55.308Z,2.70
2017-07-03T08:06:24.155Z,2.70
2017-07-03T08:08:52.243Z,2.80
2017-07-03T08:11:20.293Z,2.30
2017-07-03T08:13:48.367Z,2.23
2017-07-03T08:16:16.441Z,3.90
2017-07-03T08:18:44.773Z,2.67
2017-07-03T08:21:14.227Z,2.80
2017-07-03T08:23:42.287Z,3.07
2017-07-03T08:26:10.343Z,3.00
2017-07-03T08:28:38.417Z,3.03
2017-07-03T08:31:06.492Z,3.10
2017-07-03T08:33:34.555Z,3.10
2017-07-03T08:36:02.643Z,2.10
2017-07-03T08:38:30.715Z,6.47
2017-07-03T08:40:58.988Z,2.60
2017-07-03T08:43:27.078Z,3.20
2017-07-03T08:45:55.142Z,2.40
2017-07-03T08:48:23.220Z,3.10
2017-07-03T08:50:51.295Z,3.27
2017-07-03T08:53:19.367Z,2.87
2017-07-03T08:55:47.416Z,3.10
2017-07-03T08:58:15.482Z,2.50
2017-07-03T09:00:43.546Z,3.70
2017-07-03T09:03:11.602Z,3.10
2017-07-03T09:05:39.712Z,2.57
2017-07-03T09:08:07.774Z,2.47
2017-07-03T09:10:36.587Z,2.30
2017-07-03T09:13:04.675Z,3.00
2017-07-03T09:15:32.805Z,2.90
2017-07-03T09:18:01.612Z,2.73
2017-07-03T09:20:29.671Z,2.80
2017-07-03T09:22:57.738Z,2.50
2017-07-03T09:25:25.833Z,3.20
2017-07-03T09:27:53.903Z,3.60
2017-07-03T09:30:21.951Z,4.03
2017-07-03T09:32:50.033Z,2.93
2017-07-03T09:35:18.103Z,2.77
2017-07-03T09:37:46.184Z,2.83
2017-07-03T09:40:14.226Z,3.50
2017-07-03T09:42:42.300Z,3.00
2017-07-03T09:45:11.132Z,2.87
2017-07-03T09:47:39.187Z,2.90
2017-07-03T09:50:07.246Z,3.70
2017-07-03T09:52:35.333Z,3.40
2017-07-03T09:55:03.378Z,2.93
2017-07-03T09:57:31.447Z,3.00
2017-07-03T09:59:59.533Z,2.73
2017-07-03T10:02:27.593Z,2.97
2017-07-03T10:04:55.665Z,2.63
2017-07-03T10:07:23.717Z,3.10
2017-07-03T10:09:51.789Z,2.57
2017-07-03T10:12:19.845Z,2.80
2017-07-03T10:14:47.921Z,2.87
2017-07-03T10:17:15.982Z,3.40
2017-07-03T10:19:44.058Z,2.57
2017-07-03T10:22:12.142Z,2.80
2017-07-03T10:24:40.726Z,2.80
2017-07-03T10:27:08.783Z,2.40
2017-07-03T10:29:36.863Z,3.53
2017-07-03T10:32:04.921Z,2.90
2017-07-03T10:34:32.992Z,2.73
2017-07-03T10:37:01.839Z,2.53
2017-07-03T10:39:29.891Z,2.73
2017-07-03T10:41:57.988Z,3.03
2017-07-03T10:44:26.034Z,2.70
2017-07-03T10:46:54.112Z,2.63
2017-07-03T10:49:22.204Z,2.90
2017-07-03T10:51:51.054Z,2.50
2017-07-03T10:54:19.119Z,2.80
2017-07-03T10:56:47.182Z,2.50
2017-07-03T10:59:15.259Z,2.80
2017-07-03T11:01:43.360Z,2.33
2017-07-03T11:04:11.466Z,2.77
2017-07-03T11:06:39.514Z,2.70
2017-07-03T11:09:07.567Z,5.60
2017-07-03T11:11:36.407Z,3.50
2017-07-03T11:14:04.466Z,5.73
2017-07-03T11:16:32.550Z,2.60
2017-07-03T11:19:00.606Z,3.03
2017-07-03T11:21:28.697Z,3.40
2017-07-03T11:23:56.755Z,2.50
2017-07-03T11:26:24.806Z,3.33
2017-07-03T11:28:52.879Z,3.27
2017-07-03T11:31:20.927Z,3.40
2017-07-03T11:33:49.039Z,2.70
2017-07-03T11:36:17.098Z,3.10
2017-07-03T11:38:45.177Z,2.87
2017-07-03T11:41:13.245Z,3.03
2017-07-03T11:43:41.374Z,2.70
2017-07-03T11:46:09.424Z,4.00
2017-07-03T11:48:37.474Z,2.90
2017-07-03T11:51:05.542Z,3.00
2017-07-03T11:53:33.686Z,3.27
2017-07-03T11:56:02.490Z,2.90
2017-07-03T11:58:30.588Z,2.70
2017-07-03T12:00:58.674Z,3.00
2017-07-03T12:03:26.713Z,2.80
2017-07-03T12:05:54.782Z,3.20
2017-07-03T12:08:22.849Z,2.73
2017-07-03T12:10:50.914Z,2.80
2017-07-03T12:13:19.743Z,2.90
2017-07-03T12:15:47.810Z,2.60
2017-07-03T12:18:16.707Z,2.30
2017-07-03T12:20:44.779Z,2.33
2017-07-03T12:23:12.879Z,2.10
2017-07-03T12:25:40.942Z,2.43
2017-07-03T12:28:09.014Z,2.40
2017-07-03T12:30:37.090Z,2.40
2017-07-03T12:33:05.144Z,2.90
2017-07-03T12:35:33.208Z,2.83
2017-07-03T12:38:01.274Z,2.00
2017-07-03T12:40:29.346Z,1.60
2017-07-03T12:42:57.403Z,1.70
2017-07-03T12:45:26.252Z,2.13
2017-07-03T12:47:54.311Z,1.70
2017-07-03T12:50:22.368Z,1.93
2017-07-03T12:52:50.491Z,1.83
2017-07-03T12:55:18.529Z,2.20
2017-07-03T12:57:46.594Z,1.70
2017-07-03T13:00:14.813Z,2.67
2017-07-03T13:02:42.878Z,1.93
2017-07-03T13:05:11.717Z,1.60
2017-07-03T13:07:39.791Z,2.23
2017-07-03T13:10:07.878Z,2.33
2017-07-03T13:12:35.944Z,1.97
2017-07-03T13:15:03.994Z,1.60
2017-07-03T13:17:32.834Z,2.20
2017-07-03T13:20:00.894Z,2.10
2017-07-03T13:22:28.971Z,2.50
2017-07-03T13:24:57.042Z,1.97
2017-07-03T13:27:25.109Z,2.13
2017-07-03T13:29:53.176Z,2.37
2017-07-03T13:32:21.255Z,1.87
2017-07-03T13:34:49.311Z,1.87
2017-07-03T13:37:17.379Z,1.90
2017-07-03T13:39:45.499Z,2.40
2017-07-03T13:42:13.559Z,1.80
2017-07-03T13:44:41.643Z,2.10
2017-07-03T13:47:09.697Z,2.00
2017-07-03T13:49:37.756Z,1.90
2017-07-03T13:52:05.850Z,2.30
2017-07-03T13:54:33.898Z,2.00
2017-07-03T13:57:01.969Z,1.77
2017-07-03T13:59:30.024Z,2.53
2017-07-03T14:01:58.103Z,2.07
2017-07-03T14:04:26.189Z,1.70
2017-07-03T14:06:54.234Z,2.17
2017-07-03T14:09:22.308Z,2.63
2017-07-03T14:11:50.413Z,2.27
2017-07-03T14:14:18.442Z,2.43
2017-07-03T14:16:46.532Z,2.47
2017-07-03T14:19:14.596Z,2.27
2017-07-03T14:21:42.649Z,2.00
2017-07-03T14:24:10.734Z,2.40
2017-07-03T14:26:38.870Z,2.57
2017-07-03T14:29:06.931Z,2.70
2017-07-03T14:31:35.035Z,2.70
2017-07-03T14:34:03.115Z,2.47
2017-07-03T14:36:31.193Z,2.27
2017-07-03T14:38:59.242Z,2.57
2017-07-03T14:41:27.299Z,2.63
2017-07-03T14:43:55.444Z,2.73
2017-07-03T14:46:24.247Z,2.30
2017-07-03T14:48:52.329Z,1.93
2017-07-03T14:51:20.404Z,2.50
2017-07-03T14:53:48.464Z,2.23
2017-07-03T14:56:16.551Z,2.80
2017-07-03T14:58:44.614Z,2.17
2017-07-03T15:01:13.101Z,3.23
2017-07-03T15:03:41.159Z,2.13
2017-07-03T15:06:09.256Z,2.37
2017-07-03T15:08:37.302Z,2.77
2017-07-03T15:11:05.362Z,3.17
2017-07-03T15:13:33.431Z,2.60
2017-07-03T15:16:01.495Z,2.73
2017-07-03T15:18:29.550Z,2.60
2017-07-03T15:20:57.637Z,5.80
2017-07-03T15:23:25.680Z,3.67
2017-07-03T15:25:54.560Z,3.37
2017-07-03T15:28:23.412Z,3.60
2017-07-03T15:30:51.461Z,2.57
2017-07-03T15:33:19.539Z,2.50
2017-07-03T15:35:47.771Z,2.53
2017-07-03T15:38:16.628Z,2.90
2017-07-03T15:40:44.723Z,2.90
2017-07-03T15:43:12.808Z,2.80
2017-07-03T15:45:41.644Z,2.23
2017-07-03T15:48:09.724Z,2.50
2017-07-03T15:50:37.798Z,2.30
2017-07-03T15:53:05.863Z,3.10
2017-07-03T15:55:33.915Z,2.77
2017-07-03T15:58:02.029Z,3.17
2017-07-03T16:00:30.079Z,2.97
2017-07-03T16:02:58.145Z,2.87
2017-07-03T16:05:26.229Z,2.50
2017-07-03T16:07:54.290Z,3.00
2017-07-03T16:10:22.368Z,3.10
2017-07-03T16:12:50.472Z,2.77
2017-07-03T16:15:19.300Z,2.83
2017-07-03T16:17:47.389Z,3.00
2017-07-03T16:20:15.469Z,3.97
2017-07-03T16:22:43.535Z,3.60
2017-07-03T16:25:11.599Z,3.30
2017-07-03T16:27:39.664Z,3.40
2017-07-03T16:30:07.734Z,3.00
2017-07-03T16:32:35.835Z,3.20
2017-07-03T16:35:03.883Z,3.07
2017-07-03T16:37:31.963Z,3.33
2017-07-03T16:40:00.097Z,3.00
2017-07-03T16:42:28.941Z,3.70
2017-07-03T16:44:57.072Z,3.50
2017-07-03T16:47:25.135Z,3.77
2017-07-03T16:49:53.196Z,3.20
2017-07-03T16:52:21.290Z,3.77
2017-07-03T16:54:49.380Z,3.27
2017-07-03T16:57:17.479Z,4.43
2017-07-03T16:59:46.308Z,3.40
2017-07-03T17:02:14.375Z,3.33
2017-07-03T17:04:42.455Z,3.43
2017-07-03T17:07:10.531Z,3.93
2017-07-03T17:09:38.594Z,3.30
2017-07-03T17:12:06.676Z,2.87
2017-07-03T17:14:34.803Z,3.40
2017-07-03T17:17:02.848Z,2.67
2017-07-03T17:19:30.924Z,2.87
2017-07-03T17:21:58.967Z,3.20
2017-07-03T17:24:27.064Z,2.73
2017-07-03T17:26:55.146Z,3.00
2017-07-03T17:29:23.207Z,3.40
2017-07-03T17:31:51.282Z,3.60
2017-07-03T17:34:19.347Z,2.73
2017-07-03T17:36:47.420Z,3.13
2017-07-03T17:39:15.511Z,3.27
2017-07-03T17:41:44.326Z,3.40
2017-07-03T17:44:12.427Z,2.97
2017-07-03T17:46:40.484Z,3.67
2017-07-03T17:49:08.546Z,3.30
2017-07-03T17:51:36.625Z,3.30
2017-07-03T17:54:04.711Z,5.90
2017-07-03T17:56:32.806Z,3.90
2017-07-03T17:59:00.847Z,3.27
2017-07-03T18:01:28.920Z,3.53
2017-07-03T18:03:56.991Z,3.63
2017-07-03T18:06:25.056Z,3.00
2017-07-03T18:08:53.139Z,3.30
2017-07-03T18:11:21.207Z,3.80
2017-07-03T18:13:49.280Z,3.40
2017-07-03T18:16:17.336Z,3.27
2017-07-03T18:18:45.419Z,3.30
2017-07-03T18:21:13.487Z,3.73
2017-07-03T18:23:41.566Z,3.10
2017-07-03T18:26:10.415Z,2.90
2017-07-03T18:28:38.512Z,3.60
2017-07-03T18:31:06.560Z,3.40
2017-07-03T18:33:34.652Z,3.20
2017-07-03T18:36:02.703Z,3.70
2017-07-03T18:38:30.779Z,4.00
2017-07-03T18:40:58.862Z,3.70
2017-07-03T18:43:26.911Z,3.87
2017-07-03T18:45:54.971Z,3.57
2017-07-03T18:48:23.064Z,4.20
2017-07-03T18:50:51.130Z,4.50
2017-07-03T18:53:19.212Z,4.07
2017-07-03T18:55:47.311Z,3.50
2017-07-03T18:58:15.358Z,4.20
2017-07-03T19:00:43.423Z,4.07
2017-07-03T19:03:11.515Z,5.07
2017-07-03T19:05:39.579Z,5.47
2017-07-03T19:08:07.653Z,4.70
2017-07-03T19:10:35.701Z,4.33
2017-07-03T19:13:03.805Z,4.53
2017-07-03T19:15:31.883Z,5.00
2017-07-03T19:18:00.015Z,4.60
2017-07-03T19:20:28.072Z,4.33
2017-07-03T19:22:56.164Z,3.97
2017-07-03T19:25:24.238Z,4.17
2017-07-03T19:27:52.322Z,4.50
2017-07-03T19:30:20.415Z,3.77
2017-07-03T19:32:48.483Z,4.47
2017-07-03T19:35:17.812Z,3.97
2017-07-03T19:37:46.667Z,4.17
2017-07-03T19:40:14.726Z,3.97
2017-07-03T19:42:42.815Z,4.47
2017-07-03T19:45:10.857Z,3.70
2017-07-03T19:47:38.965Z,3.77
2017-07-03T19:50:07.803Z,3.60
2017-07-03T19:52:35.897Z,4.10
2017-07-03T19:55:03.946Z,4.37
2017-07-03T19:57:32.398Z,3.80
2017-07-03T20:00:00.439Z,3.57
2017-07-03T20:02:28.528Z,3.93
2017-07-03T20:04:57.442Z,3.77
2017-07-03T20:07:26.262Z,4.00
2017-07-03T20:09:54.357Z,3.60
2017-07-03T20:12:22.404Z,5.20
2017-07-03T20:14:50.463Z,4.07
2017-07-03T20:17:18.539Z,4.23
2017-07-03T20:19:46.594Z,3.97
2017-07-03T20:22:15.410Z,2.90
2017-07-03T20:24:43.500Z,3.87
2017-07-03T20:27:11.611Z,3.53
2017-07-03T20:29:39.652Z,3.20
2017-07-03T20:32:07.724Z,3.40
2017-07-03T20:34:35.792Z,3.10
2017-07-03T20:37:03.851Z,3.47
2017-07-03T20:39:31.921Z,3.20
2017-07-03T20:42:00.013Z,3.40
2017-07-03T20:44:28.069Z,3.40
2017-07-03T20:46:56.168Z,3.47
2017-07-03T20:49:24.251Z,3.30
2017-07-03T20:51:52.304Z,3.43
2017-07-03T20:54:20.371Z,3.93
2017-07-03T20:56:48.443Z,3.60
2017-07-03T20:59:16.520Z,4.17
2017-07-03T21:01:44.596Z,4.13
2017-07-03T21:04:12.663Z,3.40
2017-07-03T21:06:40.731Z,4.73
2017-07-03T21:09:08.806Z,3.83
2017-07-03T21:11:36.883Z,4.87
2017-07-03T21:14:04.947Z,4.60
2017-07-03T21:16:33.036Z,3.80
2017-07-03T21:19:01.112Z,4.10
2017-07-03T21:21:29.166Z,3.73
2017-07-03T21:23:57.256Z,4.23
2017-07-03T21:26:25.328Z,4.17
2017-07-03T21:28:53.386Z,5.17
2017-07-03T21:31:21.451Z,4.30
2017-07-03T21:33:49.521Z,4.73
2017-07-03T21:36:17.615Z,4.43
2017-07-03T21:38:46.220Z,4.63
2017-07-03T21:41:14.278Z,3.90
2017-07-03T21:43:42.355Z,4.40
2017-07-03T21:46:11.187Z,4.37
2017-07-03T21:48:39.256Z,4.27
2017-07-03T21:51:07.322Z,3.63
2017-07-03T21:53:35.421Z,4.10
2017-07-03T21:56:03.467Z,4.37
2017-07-03T21:58:31.520Z,4.00
2017-07-03T22:00:59.622Z,4.30
2017-07-03T22:03:27.695Z,4.63
2017-07-03T22:05:55.772Z,4.30
2017-07-03T22:08:23.857Z,5.27
2017-07-03T22:10:51.917Z,4.97
2017-07-03T22:13:19.987Z,5.40
2017-07-03T22:15:48.060Z,4.37
2017-07-03T22:18:16.120Z,4.57
2017-07-03T22:20:44.194Z,5.30
2017-07-03T22:23:12.254Z,5.47
2017-07-03T22:25:40.333Z,5.17
2017-07-03T22:28:08.384Z,4.80
2017-07-03T22:30:36.472Z,7.10
2017-07-03T22:33:04.526Z,5.27
2017-07-03T22:35:32.595Z,5.37
2017-07-03T22:38:01.438Z,4.87
2017-07-03T22:40:29.482Z,5.70
2017-07-03T22:42:57.560Z,5.57
2017-07-03T22:45:25.650Z,4.37
2017-07-03T22:47:53.710Z,4.30
2017-07-03T22:50:21.779Z,5.20
2017-07-03T22:52:49.843Z,3.70
2017-07-03T22:55:17.910Z,4.37
2017-07-03T22:57:45.993Z,3.27
2017-07-03T23:00:14.055Z,3.93
2017-07-03T23:02:42.130Z,4.17
2017-07-03T23:05:10.198Z,4.00
2017-07-03T23:07:38.279Z,3.33
2017-07-03T23:10:06.359Z,3.60
2017-07-03T23:12:34.417Z,3.60
2017-07-03T23:15:02.488Z,3.83
2017-07-03T23:17:30.819Z,3.37
2017-07-03T23:19:58.850Z,3.10
2017-07-03T23:22:27.693Z,3.70
2017-07-03T23:24:55.742Z,3.30
2017-07-03T23:27:23.808Z,3.50
2017-07-03T23:29:51.887Z,3.40
2017-07-03T23:32:19.958Z,3.20
2017-07-03T23:34:48.021Z,3.73
2017-07-03T23:37:16.091Z,3.10
2017-07-03T23:39:44.174Z,3.03
2017-07-03T23:42:12.246Z,3.37
2017-07-03T23:44:40.328Z,3.63
2017-07-03T23:47:08.391Z,3.20
2017-07-03T23:49:36.448Z,3.00
2017-07-03T23:52:04.520Z,3.13
2017-07-03T23:54:32.571Z,3.37
2017-07-03T23:57:00.643Z,3.13
2017-07-03T23:59:28.708Z,3.37
